createdAt,value
2022-12-23T00:02:33.349Z,70.68
2022-12-23T00:05:07.110Z,70.76
2022-12-23T00:07:39.982Z,70.84
2022-12-23T00:10:13.355Z,71.07
2022-12-23T00:13:04.902Z,71.28
2022-12-23T00:15:38.023Z,71.46
2022-12-23T00:18:10.980Z,71.41
2022-12-23T00:20:43.953Z,71.64
2022-12-23T00:23:17.119Z,71.67
2022-12-23T00:25:50.123Z,71.63
2022-12-23T00:28:26.089Z,71.61
2022-12-23T00:31:09.301Z,71.64
2022-12-23T00:33:44.650Z,71.31
2022-12-23T00:36:29.342Z,71.40
2022-12-23T00:39:21.070Z,71.01
2022-12-23T00:42:12.109Z,70.82
2022-12-23T00:44:45.303Z,70.73
2022-12-23T00:47:39.061Z,70.64
2022-12-23T00:50:12.416Z,70.49
2022-12-23T00:52:45.349Z,70.45
2022-12-23T00:55:18.201Z,70.50
2022-12-23T00:57:51.338Z,70.64
2022-12-23T01:00:47.719Z,70.65
2022-12-23T01:03:38.819Z,70.64
2022-12-23T01:06:11.640Z,70.68
2022-12-23T01:08:44.230Z,70.72
2022-12-23T01:11:17.153Z,70.46
2022-12-23T01:13:49.871Z,70.40
2022-12-23T01:16:22.663Z,69.74
2022-12-23T01:18:55.214Z,69.24
2022-12-23T01:21:28.083Z,69.18
2022-12-23T01:24:00.745Z,68.89
2022-12-23T01:26:33.726Z,69.00
2022-12-23T01:29:06.912Z,68.75
2022-12-23T01:31:39.766Z,68.49
2022-12-23T01:34:12.488Z,68.27
2022-12-23T01:36:45.270Z,68.31
2022-12-23T01:39:18.289Z,68.34
2022-12-23T01:42:09.570Z,68.32
2022-12-23T01:45:01.991Z,68.59
2022-12-23T01:47:41.780Z,68.90
2022-12-23T01:50:44.165Z,69.12
2022-12-23T01:53:16.665Z,69.35
2022-12-23T01:55:54.077Z,69.63
2022-12-23T01:58:54.533Z,69.84
2022-12-23T02:01:47.379Z,69.92
2022-12-23T02:04:23.632Z,69.92
2022-12-23T02:07:15.094Z,69.87
2022-12-23T02:09:47.863Z,69.78
2022-12-23T02:12:49.979Z,69.75
2022-12-23T02:16:18.708Z,69.61
2022-12-23T02:19:09.159Z,69.30
2022-12-23T02:22:10.149Z,69.23
2022-12-23T02:25:09.633Z,69.10
2022-12-23T02:28:05.793Z,68.99
2022-12-23T02:30:53.237Z,68.79
2022-12-23T02:33:37.730Z,68.62
2022-12-23T02:36:22.761Z,68.48
2022-12-23T02:38:57.945Z,68.33
2022-12-23T02:41:37.567Z,68.30
2022-12-23T02:44:30.758Z,68.28
2022-12-23T02:47:12.352Z,68.48
2022-12-23T02:49:51.120Z,68.02
2022-12-23T02:52:28.207Z,68.04
2022-12-23T02:55:15.138Z,67.97
2022-12-23T02:57:50.586Z,68.11
2022-12-23T03:00:24.468Z,68.21
2022-12-23T03:02:57.454Z,68.38
2022-12-23T03:05:49.674Z,68.43
2022-12-23T03:08:33.209Z,68.39
2022-12-23T03:11:13.398Z,68.33
2022-12-23T03:14:06.404Z,68.56
2022-12-23T03:16:53.833Z,68.59
2022-12-23T03:19:33.589Z,68.64
2022-12-23T03:22:22.146Z,68.49
2022-12-23T03:25:10.373Z,68.68
2022-12-23T03:27:44.275Z,68.87
2022-12-23T03:30:19.276Z,68.96
2022-12-23T03:32:57.810Z,69.06
2022-12-23T03:35:40.885Z,69.14
2022-12-23T03:38:17.477Z,69.17
2022-12-23T03:40:59.868Z,69.24
2022-12-23T03:43:35.243Z,69.14
2022-12-23T03:46:18.361Z,69.17
2022-12-23T03:49:01.039Z,69.20
2022-12-23T03:51:44.170Z,69.16
2022-12-23T03:54:23.581Z,69.24
2022-12-23T03:57:05.196Z,69.11
2022-12-23T03:59:43.716Z,68.91
2022-12-23T04:02:34.724Z,68.73
2022-12-23T04:05:17.190Z,68.69
2022-12-23T04:08:06.397Z,68.63
2022-12-23T04:10:39.750Z,68.62
2022-12-23T04:13:12.921Z,68.66
2022-12-23T04:15:46.261Z,68.72
2022-12-23T04:18:19.241Z,68.81
2022-12-23T04:20:52.169Z,68.71
2022-12-23T04:23:25.249Z,68.89
2022-12-23T04:25:58.290Z,69.04
2022-12-23T04:28:31.139Z,69.08
2022-12-23T04:31:04.014Z,68.99
2022-12-23T04:33:37.084Z,68.87
2022-12-23T04:36:10.139Z,68.81
2022-12-23T04:38:43.007Z,68.63
2022-12-23T04:41:16.093Z,68.50
2022-12-23T04:43:53.006Z,68.55
2022-12-23T04:46:26.565Z,68.53
2022-12-23T04:48:59.945Z,68.35
2022-12-23T04:51:33.134Z,68.08
2022-12-23T04:54:06.305Z,68.13
2022-12-23T04:56:39.320Z,68.18
2022-12-23T04:59:13.366Z,68.34
2022-12-23T05:01:46.496Z,68.30
2022-12-23T05:04:20.014Z,68.40
2022-12-23T05:06:53.169Z,68.55
2022-12-23T05:09:26.057Z,69.07
2022-12-23T05:11:58.784Z,69.33
2022-12-23T05:14:31.411Z,69.39
2022-12-23T05:17:07.680Z,69.41
2022-12-23T05:19:40.755Z,69.49
2022-12-23T05:22:13.219Z,69.41
2022-12-23T05:24:45.613Z,69.45
2022-12-23T05:27:18.131Z,69.46
2022-12-23T05:29:50.609Z,69.16
2022-12-23T05:32:23.351Z,69.13
2022-12-23T05:34:55.897Z,69.18
2022-12-23T05:37:28.589Z,69.02
2022-12-23T05:40:01.274Z,68.81
2022-12-23T05:42:34.346Z,68.71
2022-12-23T05:45:07.747Z,68.57
2022-12-23T05:47:40.993Z,68.35
2022-12-23T05:50:13.984Z,68.42
2022-12-23T05:52:47.090Z,68.23
2022-12-23T05:55:20.053Z,68.09
2022-12-23T05:57:53.369Z,68.07
2022-12-23T06:00:26.377Z,68.23
2022-12-23T06:02:59.727Z,68.50
2022-12-23T06:05:32.882Z,68.79
2022-12-23T06:08:06.219Z,68.82
2022-12-23T06:10:39.730Z,68.75
2022-12-23T06:13:12.693Z,68.76
2022-12-23T06:15:45.281Z,68.55
2022-12-23T06:18:18.513Z,68.60
2022-12-23T06:20:51.674Z,68.64
2022-12-23T06:23:24.487Z,68.49
2022-12-23T06:26:04.677Z,68.54
2022-12-23T06:28:37.348Z,68.21
2022-12-23T06:31:10.228Z,68.24
2022-12-23T06:33:43.255Z,68.01
2022-12-23T06:36:15.915Z,67.99
2022-12-23T06:38:48.664Z,67.96
2022-12-23T06:41:21.491Z,67.71
2022-12-23T06:43:54.689Z,67.89
2022-12-23T06:46:27.646Z,68.01
2022-12-23T06:49:00.631Z,68.09
2022-12-23T06:51:33.191Z,68.22
2022-12-23T06:54:06.674Z,68.29
2022-12-23T06:56:39.638Z,68.20
2022-12-23T06:59:12.711Z,68.28
2022-12-23T07:01:45.475Z,68.40
2022-12-23T07:04:18.236Z,68.61
2022-12-23T07:06:51.140Z,68.41
2022-12-23T07:09:24.450Z,68.38
2022-12-23T07:11:57.472Z,68.27
2022-12-23T07:14:30.254Z,68.03
2022-12-23T07:17:03.298Z,67.83
2022-12-23T07:19:36.552Z,67.89
2022-12-23T07:22:10.647Z,67.88
2022-12-23T07:24:43.363Z,67.71
2022-12-23T07:27:16.264Z,67.71
2022-12-23T07:29:49.070Z,67.60
2022-12-23T07:32:21.809Z,67.77
2022-12-23T07:34:54.885Z,67.95
2022-12-23T07:37:28.062Z,68.06
2022-12-23T07:40:06.566Z,68.05
2022-12-23T07:42:45.799Z,68.13
2022-12-23T07:45:19.798Z,68.35
2022-12-23T07:47:58.762Z,68.60
2022-12-23T07:50:31.851Z,68.54
2022-12-23T07:53:04.235Z,68.63
2022-12-23T07:55:37.179Z,68.62
2022-12-23T07:58:10.293Z,68.73
2022-12-23T08:00:43.742Z,68.58
2022-12-23T08:03:16.606Z,68.37
2022-12-23T08:05:49.747Z,68.30
2022-12-23T08:08:22.187Z,68.44
2022-12-23T08:11:03.774Z,68.23
2022-12-23T08:13:40.165Z,68.10
2022-12-23T08:16:13.518Z,68.15
2022-12-23T08:18:46.100Z,68.14
2022-12-23T08:21:20.901Z,68.07
2022-12-23T08:23:54.529Z,68.06
2022-12-23T08:26:27.908Z,67.91
2022-12-23T08:29:02.265Z,67.78
2022-12-23T08:31:36.067Z,67.85
2022-12-23T08:34:09.130Z,67.66
2022-12-23T08:36:42.042Z,67.94
2022-12-23T08:39:14.883Z,68.13
2022-12-23T08:41:49.752Z,68.05
2022-12-23T08:44:23.314Z,67.77
2022-12-23T08:46:56.636Z,67.55
2022-12-23T08:49:29.654Z,67.04
2022-12-23T08:52:04.159Z,66.60
2022-12-23T08:54:37.166Z,65.53
2022-12-23T08:57:09.955Z,65.83
2022-12-23T08:59:42.630Z,66.16
2022-12-23T09:02:15.553Z,66.29
2022-12-23T09:04:48.113Z,66.42
2022-12-23T09:07:20.773Z,66.34
2022-12-23T09:09:53.499Z,65.57
2022-12-23T09:12:26.597Z,65.53
2022-12-23T09:14:59.417Z,65.67
2022-12-23T09:17:32.364Z,65.66
2022-12-23T09:20:05.575Z,65.37
2022-12-23T09:22:38.629Z,65.52
2022-12-23T09:25:11.948Z,65.01
2022-12-23T09:27:44.668Z,64.90
2022-12-23T09:30:17.843Z,64.67
2022-12-23T09:32:50.517Z,64.02
2022-12-23T09:35:23.833Z,64.07
2022-12-23T09:37:56.977Z,64.29
2022-12-23T09:40:31.579Z,64.40
2022-12-23T09:43:32.569Z,64.20
2022-12-23T09:46:25.912Z,64.49
2022-12-23T09:49:14.511Z,64.41
2022-12-23T09:51:50.534Z,64.58
2022-12-23T09:54:27.506Z,64.92
2022-12-23T09:57:03.783Z,65.37
2022-12-23T09:59:58.009Z,65.32
2022-12-23T10:02:58.150Z,65.74
2022-12-23T10:06:06.227Z,65.72
2022-12-23T10:08:47.609Z,65.48
2022-12-23T10:11:47.377Z,65.84
2022-12-23T10:14:34.251Z,65.87
2022-12-23T10:17:31.872Z,65.96
2022-12-23T10:20:07.270Z,66.11
2022-12-23T10:22:45.974Z,66.06
2022-12-23T10:25:35.167Z,66.22
2022-12-23T10:28:08.187Z,66.18
2022-12-23T10:31:17.247Z,66.74
2022-12-23T10:34:05.868Z,67.54
2022-12-23T10:36:52.977Z,67.48
2022-12-23T10:39:55.546Z,67.12
2022-12-23T10:42:45.683Z,67.25
2022-12-23T10:45:35.430Z,67.17
2022-12-23T10:48:26.895Z,67.17
2022-12-23T10:51:24.084Z,67.06
2022-12-23T10:54:14.746Z,67.14
2022-12-23T10:56:47.883Z,66.47
2022-12-23T10:59:28.545Z,66.12
2022-12-23T11:02:16.432Z,66.01
2022-12-23T11:04:51.440Z,66.08
2022-12-23T11:07:45.094Z,65.86
2022-12-23T11:10:23.781Z,65.02
2022-12-23T11:12:57.307Z,65.22
2022-12-23T11:15:43.346Z,65.36
2022-12-23T11:18:16.120Z,65.46
2022-12-23T11:21:07.364Z,65.50
2022-12-23T11:23:40.168Z,65.53
2022-12-23T11:26:21.336Z,64.79
2022-12-23T11:29:01.362Z,64.62
2022-12-23T11:31:36.867Z,64.73
2022-12-23T11:34:32.814Z,64.77
2022-12-23T11:37:07.738Z,65.05
2022-12-23T11:39:41.495Z,65.56
2022-12-23T11:42:18.898Z,65.66
2022-12-23T11:44:55.452Z,65.83
2022-12-23T11:47:41.767Z,65.91
2022-12-23T11:50:33.216Z,66.07
2022-12-23T11:53:25.814Z,66.29
2022-12-23T11:56:07.783Z,66.59
2022-12-23T11:58:49.264Z,66.57
2022-12-23T12:01:25.968Z,66.80
2022-12-23T12:04:01.339Z,67.00
2022-12-23T12:06:35.872Z,67.00
2022-12-23T12:09:09.585Z,66.86
2022-12-23T12:11:52.108Z,66.90
2022-12-23T12:14:44.651Z,66.80
2022-12-23T12:17:22.736Z,67.00
2022-12-23T12:20:12.690Z,66.98
2022-12-23T12:23:02.808Z,66.91
2022-12-23T12:25:50.883Z,67.01
2022-12-23T12:28:34.701Z,67.49
2022-12-23T12:31:33.334Z,68.90
2022-12-23T12:34:14.986Z,68.86
2022-12-23T12:37:26.074Z,68.67
2022-12-23T12:40:21.779Z,68.88
2022-12-23T12:43:14.634Z,68.96
2022-12-23T12:46:15.390Z,68.69
2022-12-23T12:49:08.538Z,69.16
2022-12-23T12:52:09.728Z,69.09
2022-12-23T12:55:20.365Z,69.14
2022-12-23T12:57:52.951Z,69.38
2022-12-23T13:00:26.540Z,69.06
2022-12-23T13:03:29.236Z,69.10
2022-12-23T13:06:22.169Z,69.01
2022-12-23T13:09:30.333Z,68.76
2022-12-23T13:12:24.626Z,68.76
2022-12-23T13:15:17.517Z,68.63
2022-12-23T13:18:17.672Z,68.54
2022-12-23T13:21:08.392Z,68.58
2022-12-23T13:23:48.120Z,68.39
2022-12-23T13:26:54.741Z,68.09
2022-12-23T13:30:20.853Z,68.79
2022-12-23T13:32:56.240Z,68.28
2022-12-23T13:35:44.306Z,68.35
2022-12-23T13:38:50.171Z,68.67
2022-12-23T13:41:41.009Z,68.66
2022-12-23T13:44:15.832Z,68.78
2022-12-23T13:47:00.192Z,69.16
2022-12-23T13:50:11.762Z,69.40
2022-12-23T13:53:25.650Z,69.28
2022-12-23T13:56:22.877Z,69.09
2022-12-23T13:58:56.036Z,68.82
2022-12-23T14:01:44.633Z,68.88
2022-12-23T14:04:35.888Z,69.01
2022-12-23T14:07:29.540Z,68.90
2022-12-23T14:10:14.861Z,68.87
2022-12-23T14:12:48.559Z,68.87
2022-12-23T14:15:40.039Z,69.04
2022-12-23T14:18:36.811Z,69.12
2022-12-23T14:21:44.730Z,69.16
2022-12-23T14:24:49.055Z,68.93
2022-12-23T14:27:56.327Z,68.94
2022-12-23T14:30:46.189Z,69.38
2022-12-23T14:33:24.167Z,69.65
2022-12-23T14:36:24.295Z,69.84
2022-12-23T14:39:14.462Z,70.12
2022-12-23T14:42:03.503Z,70.15
2022-12-23T14:44:39.536Z,70.33
2022-12-23T14:47:47.269Z,70.29
2022-12-23T14:50:42.090Z,70.23
2022-12-23T14:53:25.420Z,70.53
2022-12-23T14:56:18.500Z,70.43
2022-12-23T14:59:15.655Z,70.43
2022-12-23T15:02:03.035Z,70.49
2022-12-23T15:04:49.671Z,70.62
2022-12-23T15:07:43.480Z,71.45
2022-12-23T15:10:23.779Z,71.39
2022-12-23T15:12:59.808Z,71.23
2022-12-23T15:15:34.133Z,71.35
2022-12-23T15:18:13.651Z,71.48
2022-12-23T15:20:46.369Z,71.57
2022-12-23T15:23:19.935Z,71.64
2022-12-23T15:25:56.588Z,72.20
2022-12-23T15:28:43.127Z,72.24
2022-12-23T15:31:38.209Z,72.16
2022-12-23T15:34:17.279Z,72.22
2022-12-23T15:36:55.543Z,72.28
2022-12-23T15:39:38.634Z,72.33
2022-12-23T15:42:34.744Z,72.44
2022-12-23T15:45:41.020Z,72.34
2022-12-23T15:48:40.849Z,72.26
2022-12-23T15:51:57.732Z,72.21
2022-12-23T15:54:29.825Z,72.01
2022-12-23T15:57:05.506Z,71.95
2022-12-23T15:59:41.175Z,72.07
2022-12-23T16:05:33.747Z,72.41
2022-12-23T16:08:16.595Z,72.34
2022-12-23T16:11:20.729Z,72.47
2022-12-23T16:14:03.671Z,72.48
2022-12-23T16:16:44.305Z,72.47
2022-12-23T16:19:51.872Z,72.53
2022-12-23T16:22:36.533Z,72.68
2022-12-23T16:25:32.186Z,72.65
2022-12-23T16:28:14.610Z,72.62
2022-12-23T16:30:49.874Z,72.71
2022-12-23T16:33:44.335Z,73.02
2022-12-23T16:36:38.248Z,72.81
2022-12-23T16:39:22.530Z,72.87
2022-12-23T16:41:55.175Z,73.32
2022-12-23T16:44:28.146Z,73.43
2022-12-23T16:47:18.882Z,72.84
2022-12-23T16:49:51.926Z,73.11
2022-12-23T16:52:25.164Z,73.06
2022-12-23T16:54:57.952Z,73.12
2022-12-23T16:57:30.803Z,73.05
2022-12-23T17:00:03.789Z,73.09
2022-12-23T17:02:36.630Z,73.67
2022-12-23T17:05:11.679Z,73.70
2022-12-23T17:07:45.607Z,73.53
2022-12-23T17:10:20.286Z,73.80
2022-12-23T17:12:53.703Z,73.42
2022-12-23T17:15:29.134Z,73.53
2022-12-23T17:18:01.771Z,73.19
2022-12-23T17:20:34.777Z,73.31
2022-12-23T17:23:07.962Z,73.09
2022-12-23T17:25:40.781Z,72.80
2022-12-23T17:28:14.399Z,73.96
2022-12-23T17:30:47.589Z,74.00
2022-12-23T17:33:21.517Z,73.52
2022-12-23T17:35:56.275Z,73.30
2022-12-23T17:38:32.462Z,73.44
2022-12-23T17:41:05.417Z,73.51
2022-12-23T17:43:38.532Z,73.81
2022-12-23T17:46:16.342Z,73.85
2022-12-23T17:48:49.146Z,73.79
2022-12-23T17:51:24.582Z,73.84
2022-12-23T17:53:59.164Z,73.92
2022-12-23T17:56:32.558Z,73.85
2022-12-23T17:59:05.391Z,73.71
2022-12-23T18:01:38.501Z,73.68
2022-12-23T18:04:12.012Z,73.79
2022-12-23T18:06:45.128Z,73.78
2022-12-23T18:09:19.169Z,73.46
2022-12-23T18:11:52.216Z,73.46
2022-12-23T18:14:32.284Z,73.31
2022-12-23T18:17:05.619Z,73.22
2022-12-23T18:19:38.435Z,73.20
2022-12-23T18:22:19.493Z,72.91
2022-12-23T18:24:58.964Z,73.06
2022-12-23T18:27:34.362Z,72.93
2022-12-23T18:30:08.043Z,73.03
2022-12-23T18:32:44.475Z,73.16
2022-12-23T18:35:30.472Z,73.07
2022-12-23T18:38:04.205Z,73.24
2022-12-23T18:40:37.924Z,73.34
2022-12-23T18:43:22.161Z,73.23
2022-12-23T18:45:55.098Z,73.19
2022-12-23T18:48:27.939Z,74.02
2022-12-23T18:51:00.639Z,73.61
2022-12-23T18:53:33.755Z,73.62
2022-12-23T18:56:06.521Z,73.43
2022-12-23T18:58:39.468Z,73.48
2022-12-23T19:01:16.562Z,73.95
2022-12-23T19:03:50.034Z,73.44
2022-12-23T19:06:22.834Z,73.26
2022-12-23T19:08:55.785Z,73.20
2022-12-23T19:11:28.491Z,72.91
2022-12-23T19:14:01.148Z,73.33
2022-12-23T19:16:34.382Z,73.43
2022-12-23T19:19:07.652Z,73.55
2022-12-23T19:21:41.088Z,73.69
2022-12-23T19:24:14.406Z,73.68
2022-12-23T19:26:46.945Z,73.40
2022-12-23T19:29:19.788Z,73.36
2022-12-23T19:31:53.116Z,73.35
2022-12-23T19:34:26.395Z,73.27
2022-12-23T19:36:59.572Z,73.22
2022-12-23T19:39:32.790Z,73.30
2022-12-23T19:42:05.786Z,73.40
2022-12-23T19:44:38.529Z,72.96
2022-12-23T19:47:12.001Z,72.78
2022-12-23T19:49:45.523Z,72.89
2022-12-23T19:52:18.442Z,72.79
2022-12-23T19:54:51.631Z,72.76
2022-12-23T19:57:25.104Z,73.16
2022-12-23T19:59:58.142Z,73.05
2022-12-23T20:02:30.527Z,73.19
2022-12-23T20:05:03.723Z,73.33
2022-12-23T20:07:38.119Z,73.51
2022-12-23T20:10:11.713Z,73.40
2022-12-23T20:12:44.625Z,73.05
2022-12-23T20:15:17.430Z,73.28
2022-12-23T20:17:50.344Z,73.05
2022-12-23T20:20:23.331Z,73.02
2022-12-23T20:22:56.476Z,73.15
2022-12-23T20:25:29.720Z,73.23
2022-12-23T20:28:02.412Z,73.03
2022-12-23T20:30:34.735Z,72.94
2022-12-23T20:33:07.635Z,72.91
2022-12-23T20:35:41.316Z,72.82
2022-12-23T20:38:14.279Z,72.90
2022-12-23T20:40:46.881Z,72.95
2022-12-23T20:43:19.352Z,73.14
2022-12-23T20:45:53.442Z,73.02
2022-12-23T20:48:31.786Z,73.15
2022-12-23T20:51:15.659Z,73.25
2022-12-23T20:53:48.176Z,73.23
2022-12-23T20:56:22.339Z,72.93
2022-12-23T20:58:58.842Z,72.78
2022-12-23T21:01:42.156Z,72.57
2022-12-23T21:04:16.876Z,72.60
2022-12-23T21:06:49.838Z,72.39
2022-12-23T21:09:23.090Z,72.34
2022-12-23T21:11:56.274Z,72.41
2022-12-23T21:14:28.806Z,72.35
2022-12-23T21:17:01.932Z,72.25
2022-12-23T21:19:35.287Z,72.35
2022-12-23T21:22:09.092Z,72.34
2022-12-23T21:24:41.727Z,72.34
2022-12-23T21:27:14.934Z,72.52
2022-12-23T21:29:47.855Z,72.71
2022-12-23T21:32:20.911Z,72.87
2022-12-23T21:34:53.604Z,73.07
2022-12-23T21:37:27.880Z,73.31
2022-12-23T21:40:00.609Z,73.31
2022-12-23T21:42:33.212Z,73.42
2022-12-23T21:45:05.892Z,73.28
2022-12-23T21:47:38.897Z,73.01
2022-12-23T21:50:13.076Z,72.94
2022-12-23T21:52:45.565Z,72.73
2022-12-23T21:55:18.465Z,72.56
2022-12-23T21:57:51.139Z,72.51
2022-12-23T22:00:24.151Z,72.25
2022-12-23T22:02:56.880Z,72.39
2022-12-23T22:05:29.788Z,72.45
2022-12-23T22:08:02.797Z,72.52
2022-12-23T22:10:38.984Z,73.01
2022-12-23T22:13:11.769Z,73.07
2022-12-23T22:15:45.659Z,73.08
2022-12-23T22:18:18.259Z,72.91
2022-12-23T22:20:50.803Z,72.75
2022-12-23T22:23:23.620Z,72.87
2022-12-23T22:25:57.779Z,72.64
2022-12-23T22:28:32.593Z,72.80
2022-12-23T22:31:36.776Z,72.59
2022-12-23T22:34:12.759Z,72.56
2022-12-23T22:36:45.822Z,72.46
2022-12-23T22:39:21.848Z,72.39
2022-12-23T22:41:54.833Z,72.20
2022-12-23T22:44:27.683Z,72.18
2022-12-23T22:47:00.675Z,72.32
2022-12-23T22:49:33.644Z,73.24
2022-12-23T22:52:06.992Z,73.43
2022-12-23T22:54:39.576Z,72.97
2022-12-23T22:57:12.217Z,73.32
2022-12-23T22:59:45.485Z,73.12
2022-12-23T23:02:18.648Z,73.13
2022-12-23T23:04:51.754Z,73.13
2022-12-23T23:07:24.776Z,73.20
2022-12-23T23:09:57.863Z,73.16
2022-12-23T23:12:31.024Z,72.85
2022-12-23T23:15:04.104Z,72.86
2022-12-23T23:17:36.896Z,72.88
2022-12-23T23:20:10.569Z,72.73
2022-12-23T23:22:44.795Z,72.57
2022-12-23T23:25:17.806Z,72.86
2022-12-23T23:27:50.513Z,72.64
2022-12-23T23:30:23.722Z,73.02
2022-12-23T23:32:56.900Z,73.80
2022-12-23T23:35:30.303Z,72.92
2022-12-23T23:38:03.206Z,72.90
2022-12-23T23:40:36.460Z,73.02
2022-12-23T23:43:09.279Z,73.22
2022-12-23T23:45:43.059Z,73.13
2022-12-23T23:48:16.967Z,73.18
2022-12-23T23:50:50.672Z,73.45
2022-12-23T23:53:23.621Z,73.43
2022-12-23T23:56:02.246Z,73.59
2022-12-23T23:58:35.754Z,73.66
